sensor_id;sensor_type;location;lat;lon;timestamp;temperature;humidity
19085;DHT22;9675;51.538;6.728;2023-11-22T00:00:22;9.70;99.90
19085;DHT22;9675;51.538;6.728;2023-11-22T00:02:49;9.70;99.90
19085;DHT22;9675;51.538;6.728;2023-11-22T00:05:16;9.60;99.90
19085;DHT22;9675;51.538;6.728;2023-11-22T00:07:43;9.60;99.90
19085;DHT22;9675;51.538;6.728;2023-11-22T00:10:10;9.60;99.90
19085;DHT22;9675;51.538;6.728;2023-11-22T00:12:37;9.60;99.90
19085;DHT22;9675;51.538;6.728;2023-11-22T00:15:07;9.60;99.90
19085;DHT22;9675;51.538;6.728;2023-11-22T00:17:37;9.60;99.90
19085;DHT22;9675;51.538;6.728;2023-11-22T00:20:05;9.60;99.90
19085;DHT22;9675;51.538;6.728;2023-11-22T00:22:33;9.60;99.90
19085;DHT22;9675;51.538;6.728;2023-11-22T00:25:00;9.60;99.90
19085;DHT22;9675;51.538;6.728;2023-11-22T00:27:29;9.60;99.90
19085;DHT22;9675;51.538;6.728;2023-11-22T00:29:56;9.60;99.90
19085;DHT22;9675;51.538;6.728;2023-11-22T00:32:25;9.50;99.90
19085;DHT22;9675;51.538;6.728;2023-11-22T00:34:52;9.50;99.90
19085;DHT22;9675;51.538;6.728;2023-11-22T00:37:19;9.50;99.90
19085;DHT22;9675;51.538;6.728;2023-11-22T00:39:46;9.50;99.90
19085;DHT22;9675;51.538;6.728;2023-11-22T00:42:13;9.50;99.90
19085;DHT22;9675;51.538;6.728;2023-11-22T00:44:40;9.40;99.90
19085;DHT22;9675;51.538;6.728;2023-11-22T00:47:08;9.40;99.90
19085;DHT22;9675;51.538;6.728;2023-11-22T00:49:37;9.40;99.90
19085;DHT22;9675;51.538;6.728;2023-11-22T00:52:04;9.40;99.90
19085;DHT22;9675;51.538;6.728;2023-11-22T00:54:32;9.40;99.90
19085;DHT22;9675;51.538;6.728;2023-11-22T00:56:59;9.40;99.90
19085;DHT22;9675;51.538;6.728;2023-11-22T00:59:26;9.30;99.90
19085;DHT22;9675;51.538;6.728;2023-11-22T01:01:54;9.30;99.90
19085;DHT22;9675;51.538;6.728;2023-11-22T01:04:21;9.30;99.90
19085;DHT22;9675;51.538;6.728;2023-11-22T01:06:49;9.30;99.90
19085;DHT22;9675;51.538;6.728;2023-11-22T01:09:16;9.30;99.90
19085;DHT22;9675;51.538;6.728;2023-11-22T01:11:44;9.20;99.90
19085;DHT22;9675;51.538;6.728;2023-11-22T01:14:12;9.20;99.90
19085;DHT22;9675;51.538;6.728;2023-11-22T01:16:39;9.10;99.90
19085;DHT22;9675;51.538;6.728;2023-11-22T01:19:08;9.10;99.90
19085;DHT22;9675;51.538;6.728;2023-11-22T01:21:35;9.10;99.90
19085;DHT22;9675;51.538;6.728;2023-11-22T01:24:04;9.10;99.90
19085;DHT22;9675;51.538;6.728;2023-11-22T01:26:32;9.00;99.90
19085;DHT22;9675;51.538;6.728;2023-11-22T01:28:59;9.00;99.90
19085;DHT22;9675;51.538;6.728;2023-11-22T01:31:27;9.00;99.90
19085;DHT22;9675;51.538;6.728;2023-11-22T01:33:55;9.00;99.90
19085;DHT22;9675;51.538;6.728;2023-11-22T01:36:22;8.90;99.90
19085;DHT22;9675;51.538;6.728;2023-11-22T01:38:51;8.90;99.90
19085;DHT22;9675;51.538;6.728;2023-11-22T01:41:19;8.80;99.90
19085;DHT22;9675;51.538;6.728;2023-11-22T01:43:47;8.80;99.90
19085;DHT22;9675;51.538;6.728;2023-11-22T01:46:21;8.80;99.90
19085;DHT22;9675;51.538;6.728;2023-11-22T01:48:52;8.70;99.90
19085;DHT22;9675;51.538;6.728;2023-11-22T01:51:20;8.70;99.90
19085;DHT22;9675;51.538;6.728;2023-11-22T01:53:52;8.70;99.90
19085;DHT22;9675;51.538;6.728;2023-11-22T01:56:23;8.70;99.90
19085;DHT22;9675;51.538;6.728;2023-11-22T01:58:53;8.70;99.90
19085;DHT22;9675;51.538;6.728;2023-11-22T02:01:22;8.60;99.90
19085;DHT22;9675;51.538;6.728;2023-11-22T02:03:49;8.60;99.90
19085;DHT22;9675;51.538;6.728;2023-11-22T02:06:18;8.60;99.90
19085;DHT22;9675;51.538;6.728;2023-11-22T02:08:47;8.60;99.90
19085;DHT22;9675;51.538;6.728;2023-11-22T02:11:17;8.50;99.90
19085;DHT22;9675;51.538;6.728;2023-11-22T02:13:48;8.50;99.90
19085;DHT22;9675;51.538;6.728;2023-11-22T02:16:16;8.50;99.90
19085;DHT22;9675;51.538;6.728;2023-11-22T02:18:43;8.50;99.90
19085;DHT22;9675;51.538;6.728;2023-11-22T02:21:11;8.50;99.90
19085;DHT22;9675;51.538;6.728;2023-11-22T02:23:39;8.50;99.90
19085;DHT22;9675;51.538;6.728;2023-11-22T02:26:07;8.40;99.90
19085;DHT22;9675;51.538;6.728;2023-11-22T02:28:35;8.40;99.90
19085;DHT22;9675;51.538;6.728;2023-11-22T02:31:02;8.40;99.90
19085;DHT22;9675;51.538;6.728;2023-11-22T02:33:29;8.40;99.90
19085;DHT22;9675;51.538;6.728;2023-11-22T02:35:57;8.30;99.90
19085;DHT22;9675;51.538;6.728;2023-11-22T02:38:24;8.30;99.90
19085;DHT22;9675;51.538;6.728;2023-11-22T02:40:53;8.30;99.90
19085;DHT22;9675;51.538;6.728;2023-11-22T02:43:20;8.30;99.90
19085;DHT22;9675;51.538;6.728;2023-11-22T02:45:48;8.30;99.90
19085;DHT22;9675;51.538;6.728;2023-11-22T02:48:15;8.30;99.90
19085;DHT22;9675;51.538;6.728;2023-11-22T02:50:42;8.20;99.90
19085;DHT22;9675;51.538;6.728;2023-11-22T02:53:10;8.20;99.90
19085;DHT22;9675;51.538;6.728;2023-11-22T02:55:38;8.20;99.90
19085;DHT22;9675;51.538;6.728;2023-11-22T02:58:06;8.20;99.90
19085;DHT22;9675;51.538;6.728;2023-11-22T03:00:33;8.20;99.90
19085;DHT22;9675;51.538;6.728;2023-11-22T03:03:01;8.10;99.90
19085;DHT22;9675;51.538;6.728;2023-11-22T03:05:29;8.10;99.90
19085;DHT22;9675;51.538;6.728;2023-11-22T03:07:56;8.10;99.90
19085;DHT22;9675;51.538;6.728;2023-11-22T03:10:24;8.00;99.90
19085;DHT22;9675;51.538;6.728;2023-11-22T03:12:51;8.00;99.90
19085;DHT22;9675;51.538;6.728;2023-11-22T03:15:21;8.00;99.90
19085;DHT22;9675;51.538;6.728;2023-11-22T03:17:48;8.00;99.90
19085;DHT22;9675;51.538;6.728;2023-11-22T03:20:15;7.90;99.90
19085;DHT22;9675;51.538;6.728;2023-11-22T03:22:42;7.90;99.90
19085;DHT22;9675;51.538;6.728;2023-11-22T03:25:10;7.90;99.90
19085;DHT22;9675;51.538;6.728;2023-11-22T03:27:38;7.90;99.90
19085;DHT22;9675;51.538;6.728;2023-11-22T03:30:06;7.80;99.90
19085;DHT22;9675;51.538;6.728;2023-11-22T03:32:38;7.80;99.90
19085;DHT22;9675;51.538;6.728;2023-11-22T03:35:06;7.80;99.90
19085;DHT22;9675;51.538;6.728;2023-11-22T03:37:33;7.80;99.90
19085;DHT22;9675;51.538;6.728;2023-11-22T03:40:00;7.80;99.90
19085;DHT22;9675;51.538;6.728;2023-11-22T03:42:28;7.80;99.90
19085;DHT22;9675;51.538;6.728;2023-11-22T03:44:55;7.70;99.90
19085;DHT22;9675;51.538;6.728;2023-11-22T03:47:24;7.70;99.90
19085;DHT22;9675;51.538;6.728;2023-11-22T03:49:52;7.70;99.90
19085;DHT22;9675;51.538;6.728;2023-11-22T03:52:21;7.70;99.90
19085;DHT22;9675;51.538;6.728;2023-11-22T03:54:48;7.70;99.90
19085;DHT22;9675;51.538;6.728;2023-11-22T03:57:15;7.60;99.90
19085;DHT22;9675;51.538;6.728;2023-11-22T03:59:42;7.60;99.90
19085;DHT22;9675;51.538;6.728;2023-11-22T04:02:09;7.60;99.90
19085;DHT22;9675;51.538;6.728;2023-11-22T04:04:36;7.50;99.90
19085;DHT22;9675;51.538;6.728;2023-11-22T04:07:06;7.50;99.90
19085;DHT22;9675;51.538;6.728;2023-11-22T04:09:33;7.50;99.90
19085;DHT22;9675;51.538;6.728;2023-11-22T04:12:01;7.50;99.90
19085;DHT22;9675;51.538;6.728;2023-11-22T04:14:29;7.50;99.90
19085;DHT22;9675;51.538;6.728;2023-11-22T04:16:56;7.50;99.90
19085;DHT22;9675;51.538;6.728;2023-11-22T04:19:23;7.50;99.90
19085;DHT22;9675;51.538;6.728;2023-11-22T04:21:50;7.50;99.90
19085;DHT22;9675;51.538;6.728;2023-11-22T04:24:18;7.40;99.90
19085;DHT22;9675;51.538;6.728;2023-11-22T04:26:45;7.40;99.90
19085;DHT22;9675;51.538;6.728;2023-11-22T04:29:12;7.50;99.90
19085;DHT22;9675;51.538;6.728;2023-11-22T04:31:40;7.40;99.90
19085;DHT22;9675;51.538;6.728;2023-11-22T04:34:07;7.40;99.90
19085;DHT22;9675;51.538;6.728;2023-11-22T04:36:34;7.30;99.90
19085;DHT22;9675;51.538;6.728;2023-11-22T04:39:01;7.30;99.90
19085;DHT22;9675;51.538;6.728;2023-11-22T04:41:30;7.30;99.90
19085;DHT22;9675;51.538;6.728;2023-11-22T04:43:57;7.20;99.90
19085;DHT22;9675;51.538;6.728;2023-11-22T04:46:24;7.20;99.90
19085;DHT22;9675;51.538;6.728;2023-11-22T04:48:51;7.20;99.90
19085;DHT22;9675;51.538;6.728;2023-11-22T04:51:18;7.20;99.90
19085;DHT22;9675;51.538;6.728;2023-11-22T04:53:45;7.20;99.90
19085;DHT22;9675;51.538;6.728;2023-11-22T04:56:12;7.20;99.90
19085;DHT22;9675;51.538;6.728;2023-11-22T04:58:40;7.20;99.90
19085;DHT22;9675;51.538;6.728;2023-11-22T05:01:07;7.20;99.90
19085;DHT22;9675;51.538;6.728;2023-11-22T05:03:36;7.20;99.90
19085;DHT22;9675;51.538;6.728;2023-11-22T05:06:04;7.20;99.90
19085;DHT22;9675;51.538;6.728;2023-11-22T05:08:32;7.20;99.90
19085;DHT22;9675;51.538;6.728;2023-11-22T05:10:59;7.20;99.90
19085;DHT22;9675;51.538;6.728;2023-11-22T05:13:28;7.20;99.90
19085;DHT22;9675;51.538;6.728;2023-11-22T05:15:56;7.10;99.90
19085;DHT22;9675;51.538;6.728;2023-11-22T05:18:23;7.10;99.90
19085;DHT22;9675;51.538;6.728;2023-11-22T05:20:50;7.10;99.90
19085;DHT22;9675;51.538;6.728;2023-11-22T05:23:17;7.10;99.90
19085;DHT22;9675;51.538;6.728;2023-11-22T05:25:44;7.10;99.90
19085;DHT22;9675;51.538;6.728;2023-11-22T05:28:12;7.10;99.90
19085;DHT22;9675;51.538;6.728;2023-11-22T05:30:39;7.10;99.90
19085;DHT22;9675;51.538;6.728;2023-11-22T05:33:07;7.10;99.90
19085;DHT22;9675;51.538;6.728;2023-11-22T05:35:34;7.00;99.90
19085;DHT22;9675;51.538;6.728;2023-11-22T05:38:01;7.10;99.90
19085;DHT22;9675;51.538;6.728;2023-11-22T05:40:28;7.00;99.90
19085;DHT22;9675;51.538;6.728;2023-11-22T05:42:55;7.00;99.90
19085;DHT22;9675;51.538;6.728;2023-11-22T05:45:22;7.00;99.90
19085;DHT22;9675;51.538;6.728;2023-11-22T05:47:50;7.00;99.90
19085;DHT22;9675;51.538;6.728;2023-11-22T05:50:19;7.00;99.90
19085;DHT22;9675;51.538;6.728;2023-11-22T05:52:45;6.90;99.90
19085;DHT22;9675;51.538;6.728;2023-11-22T05:55:12;6.90;99.90
19085;DHT22;9675;51.538;6.728;2023-11-22T05:57:40;6.90;99.90
19085;DHT22;9675;51.538;6.728;2023-11-22T06:00:08;6.80;99.90
19085;DHT22;9675;51.538;6.728;2023-11-22T06:02:36;6.80;99.90
19085;DHT22;9675;51.538;6.728;2023-11-22T06:05:05;6.80;99.90
19085;DHT22;9675;51.538;6.728;2023-11-22T06:07:34;6.80;99.90
19085;DHT22;9675;51.538;6.728;2023-11-22T06:10:01;6.80;99.90
19085;DHT22;9675;51.538;6.728;2023-11-22T06:12:28;6.80;99.90
19085;DHT22;9675;51.538;6.728;2023-11-22T06:14:55;6.80;99.90
19085;DHT22;9675;51.538;6.728;2023-11-22T06:17:22;6.70;99.90
19085;DHT22;9675;51.538;6.728;2023-11-22T06:19:49;6.70;99.90
19085;DHT22;9675;51.538;6.728;2023-11-22T06:22:16;6.70;99.90
19085;DHT22;9675;51.538;6.728;2023-11-22T06:24:46;6.70;99.90
19085;DHT22;9675;51.538;6.728;2023-11-22T06:27:13;6.70;99.90
19085;DHT22;9675;51.538;6.728;2023-11-22T06:29:40;6.70;99.90
19085;DHT22;9675;51.538;6.728;2023-11-22T06:32:10;6.60;99.90
19085;DHT22;9675;51.538;6.728;2023-11-22T06:34:37;6.60;99.90
19085;DHT22;9675;51.538;6.728;2023-11-22T06:37:04;6.60;99.90
19085;DHT22;9675;51.538;6.728;2023-11-22T06:39:34;6.60;99.90
19085;DHT22;9675;51.538;6.728;2023-11-22T06:42:04;6.50;99.90
19085;DHT22;9675;51.538;6.728;2023-11-22T06:44:31;6.60;99.90
19085;DHT22;9675;51.538;6.728;2023-11-22T06:46:59;6.50;99.90
19085;DHT22;9675;51.538;6.728;2023-11-22T06:49:27;6.50;99.90
19085;DHT22;9675;51.538;6.728;2023-11-22T06:51:54;6.50;99.90
19085;DHT22;9675;51.538;6.728;2023-11-22T06:54:22;6.40;99.90
19085;DHT22;9675;51.538;6.728;2023-11-22T06:56:49;6.40;99.90
19085;DHT22;9675;51.538;6.728;2023-11-22T06:59:18;6.40;99.90
19085;DHT22;9675;51.538;6.728;2023-11-22T07:01:45;6.40;99.90
19085;DHT22;9675;51.538;6.728;2023-11-22T07:04:12;6.30;99.90
19085;DHT22;9675;51.538;6.728;2023-11-22T07:06:39;6.30;99.90
19085;DHT22;9675;51.538;6.728;2023-11-22T07:09:08;6.30;99.90
19085;DHT22;9675;51.538;6.728;2023-11-22T07:11:36;6.30;99.90
19085;DHT22;9675;51.538;6.728;2023-11-22T07:14:03;6.30;99.90
19085;DHT22;9675;51.538;6.728;2023-11-22T07:16:32;6.30;99.90
19085;DHT22;9675;51.538;6.728;2023-11-22T07:18:59;6.30;99.90
19085;DHT22;9675;51.538;6.728;2023-11-22T07:21:28;6.30;99.90
19085;DHT22;9675;51.538;6.728;2023-11-22T07:23:56;6.20;99.90
19085;DHT22;9675;51.538;6.728;2023-11-22T07:26:24;6.20;99.90
19085;DHT22;9675;51.538;6.728;2023-11-22T07:28:52;6.20;99.90
19085;DHT22;9675;51.538;6.728;2023-11-22T07:31:20;6.20;99.90
19085;DHT22;9675;51.538;6.728;2023-11-22T07:33:49;6.20;99.90
19085;DHT22;9675;51.538;6.728;2023-11-22T07:36:17;6.10;99.90
19085;DHT22;9675;51.538;6.728;2023-11-22T07:38:46;6.10;99.90
19085;DHT22;9675;51.538;6.728;2023-11-22T07:41:13;6.10;99.90
19085;DHT22;9675;51.538;6.728;2023-11-22T07:43:41;6.10;99.90
19085;DHT22;9675;51.538;6.728;2023-11-22T07:46:08;6.10;99.90
19085;DHT22;9675;51.538;6.728;2023-11-22T07:48:38;6.10;99.90
19085;DHT22;9675;51.538;6.728;2023-11-22T07:51:07;6.10;99.90
19085;DHT22;9675;51.538;6.728;2023-11-22T07:53:35;6.10;99.90
19085;DHT22;9675;51.538;6.728;2023-11-22T07:56:02;6.10;99.90
19085;DHT22;9675;51.538;6.728;2023-11-22T07:58:30;6.00;99.90
19085;DHT22;9675;51.538;6.728;2023-11-22T08:00:58;6.00;99.90
19085;DHT22;9675;51.538;6.728;2023-11-22T08:03:25;6.00;99.90
19085;DHT22;9675;51.538;6.728;2023-11-22T08:05:52;6.00;99.90
19085;DHT22;9675;51.538;6.728;2023-11-22T08:08:22;6.00;99.90
19085;DHT22;9675;51.538;6.728;2023-11-22T08:10:50;5.90;99.90
19085;DHT22;9675;51.538;6.728;2023-11-22T08:13:19;5.90;99.90
19085;DHT22;9675;51.538;6.728;2023-11-22T08:15:48;5.90;99.90
19085;DHT22;9675;51.538;6.728;2023-11-22T08:18:15;5.90;99.90
19085;DHT22;9675;51.538;6.728;2023-11-22T08:20:43;5.90;99.90
19085;DHT22;9675;51.538;6.728;2023-11-22T08:23:10;5.90;99.90
19085;DHT22;9675;51.538;6.728;2023-11-22T08:25:39;5.90;99.90
19085;DHT22;9675;51.538;6.728;2023-11-22T08:28:06;5.90;99.90
19085;DHT22;9675;51.538;6.728;2023-11-22T08:30:34;5.90;99.90
19085;DHT22;9675;51.538;6.728;2023-11-22T08:33:02;5.90;99.90
19085;DHT22;9675;51.538;6.728;2023-11-22T08:35:29;5.80;99.90
19085;DHT22;9675;51.538;6.728;2023-11-22T08:37:56;5.80;99.90
19085;DHT22;9675;51.538;6.728;2023-11-22T08:40:24;5.90;99.90
19085;DHT22;9675;51.538;6.728;2023-11-22T08:42:52;5.90;99.90
19085;DHT22;9675;51.538;6.728;2023-11-22T08:45:20;5.90;99.90
19085;DHT22;9675;51.538;6.728;2023-11-22T08:47:47;5.90;99.90
19085;DHT22;9675;51.538;6.728;2023-11-22T08:50:15;5.90;99.90
19085;DHT22;9675;51.538;6.728;2023-11-22T08:52:43;5.90;99.90
19085;DHT22;9675;51.538;6.728;2023-11-22T08:55:10;5.90;99.90
19085;DHT22;9675;51.538;6.728;2023-11-22T08:57:38;5.80;99.90
19085;DHT22;9675;51.538;6.728;2023-11-22T09:00:08;5.90;99.90
19085;DHT22;9675;51.538;6.728;2023-11-22T09:02:37;5.80;99.90
19085;DHT22;9675;51.538;6.728;2023-11-22T09:05:05;5.80;99.90
19085;DHT22;9675;51.538;6.728;2023-11-22T09:07:34;5.80;99.90
19085;DHT22;9675;51.538;6.728;2023-11-22T09:10:05;5.70;99.90
19085;DHT22;9675;51.538;6.728;2023-11-22T09:12:35;5.60;99.90
19085;DHT22;9675;51.538;6.728;2023-11-22T09:15:07;5.60;99.90
19085;DHT22;9675;51.538;6.728;2023-11-22T09:17:36;5.60;99.90
19085;DHT22;9675;51.538;6.728;2023-11-22T09:20:09;5.70;99.90
19085;DHT22;9675;51.538;6.728;2023-11-22T09:22:41;5.70;99.90
19085;DHT22;9675;51.538;6.728;2023-11-22T09:25:13;5.70;99.90
19085;DHT22;9675;51.538;6.728;2023-11-22T09:27:42;5.60;99.90
19085;DHT22;9675;51.538;6.728;2023-11-22T09:30:14;5.50;99.90
19085;DHT22;9675;51.538;6.728;2023-11-22T09:32:57;5.60;99.90
19085;DHT22;9675;51.538;6.728;2023-11-22T09:35:25;5.60;99.90
19085;DHT22;9675;51.538;6.728;2023-11-22T09:37:54;5.60;99.90
19085;DHT22;9675;51.538;6.728;2023-11-22T09:40:22;5.70;99.90
19085;DHT22;9675;51.538;6.728;2023-11-22T09:42:50;5.80;99.90
19085;DHT22;9675;51.538;6.728;2023-11-22T09:45:20;5.80;99.90
19085;DHT22;9675;51.538;6.728;2023-11-22T09:47:47;5.80;99.90
19085;DHT22;9675;51.538;6.728;2023-11-22T09:50:19;5.90;99.90
19085;DHT22;9675;51.538;6.728;2023-11-22T09:52:50;5.90;99.90
19085;DHT22;9675;51.538;6.728;2023-11-22T09:55:20;6.00;99.90
19085;DHT22;9675;51.538;6.728;2023-11-22T09:57:52;6.10;99.90
19085;DHT22;9675;51.538;6.728;2023-11-22T10:00:21;6.10;99.90
19085;DHT22;9675;51.538;6.728;2023-11-22T10:02:53;6.10;99.90
19085;DHT22;9675;51.538;6.728;2023-11-22T10:05:20;6.10;99.90
19085;DHT22;9675;51.538;6.728;2023-11-22T10:07:47;6.10;99.90
19085;DHT22;9675;51.538;6.728;2023-11-22T10:10:15;6.20;99.90
19085;DHT22;9675;51.538;6.728;2023-11-22T10:12:44;6.20;99.90
19085;DHT22;9675;51.538;6.728;2023-11-22T10:15:12;6.20;99.90
19085;DHT22;9675;51.538;6.728;2023-11-22T10:17:42;6.20;99.90
19085;DHT22;9675;51.538;6.728;2023-11-22T10:20:14;6.30;99.90
19085;DHT22;9675;51.538;6.728;2023-11-22T10:22:44;6.30;99.90
19085;DHT22;9675;51.538;6.728;2023-11-22T10:25:13;6.30;99.90
19085;DHT22;9675;51.538;6.728;2023-11-22T10:27:44;6.30;99.90
19085;DHT22;9675;51.538;6.728;2023-11-22T10:30:12;6.40;99.90
19085;DHT22;9675;51.538;6.728;2023-11-22T10:32:42;6.50;99.90
19085;DHT22;9675;51.538;6.728;2023-11-22T10:35:09;6.50;99.90
19085;DHT22;9675;51.538;6.728;2023-11-22T10:37:41;6.50;99.90
19085;DHT22;9675;51.538;6.728;2023-11-22T10:40:12;6.50;99.90
19085;DHT22;9675;51.538;6.728;2023-11-22T10:42:41;6.50;99.90
19085;DHT22;9675;51.538;6.728;2023-11-22T10:45:10;6.60;99.90
19085;DHT22;9675;51.538;6.728;2023-11-22T10:47:38;6.60;99.90
19085;DHT22;9675;51.538;6.728;2023-11-22T10:50:09;6.60;99.90
19085;DHT22;9675;51.538;6.728;2023-11-22T10:52:41;6.60;99.90
19085;DHT22;9675;51.538;6.728;2023-11-22T10:55:11;6.70;99.90
19085;DHT22;9675;51.538;6.728;2023-11-22T10:57:46;6.60;99.90
19085;DHT22;9675;51.538;6.728;2023-11-22T11:00:16;6.70;99.90
19085;DHT22;9675;51.538;6.728;2023-11-22T11:02:51;6.70;99.90
19085;DHT22;9675;51.538;6.728;2023-11-22T11:05:27;6.80;99.90
19085;DHT22;9675;51.538;6.728;2023-11-22T11:08:00;6.80;99.90
19085;DHT22;9675;51.538;6.728;2023-11-22T11:10:39;6.80;99.90
19085;DHT22;9675;51.538;6.728;2023-11-22T11:13:07;6.80;99.90
19085;DHT22;9675;51.538;6.728;2023-11-22T11:15:35;6.90;99.90
19085;DHT22;9675;51.538;6.728;2023-11-22T11:18:04;6.90;99.90
19085;DHT22;9675;51.538;6.728;2023-11-22T11:20:45;6.90;99.90
19085;DHT22;9675;51.538;6.728;2023-11-22T11:23:15;6.90;99.90
19085;DHT22;9675;51.538;6.728;2023-11-22T11:25:42;7.00;99.90
19085;DHT22;9675;51.538;6.728;2023-11-22T11:28:10;7.00;99.90
19085;DHT22;9675;51.538;6.728;2023-11-22T11:30:43;7.10;99.90
19085;DHT22;9675;51.538;6.728;2023-11-22T11:33:12;7.10;99.90
19085;DHT22;9675;51.538;6.728;2023-11-22T11:35:45;7.20;99.90
19085;DHT22;9675;51.538;6.728;2023-11-22T11:38:14;7.20;99.90
19085;DHT22;9675;51.538;6.728;2023-11-22T11:40:43;7.20;99.90
19085;DHT22;9675;51.538;6.728;2023-11-22T11:43:12;7.20;99.90
19085;DHT22;9675;51.538;6.728;2023-11-22T11:45:40;7.20;99.90
19085;DHT22;9675;51.538;6.728;2023-11-22T11:48:12;7.20;99.90
19085;DHT22;9675;51.538;6.728;2023-11-22T11:50:40;7.20;99.90
19085;DHT22;9675;51.538;6.728;2023-11-22T11:53:09;7.30;99.90
19085;DHT22;9675;51.538;6.728;2023-11-22T11:55:36;7.30;99.90
19085;DHT22;9675;51.538;6.728;2023-11-22T11:58:07;7.30;99.90
19085;DHT22;9675;51.538;6.728;2023-11-22T12:00:35;7.40;99.90
19085;DHT22;9675;51.538;6.728;2023-11-22T12:03:06;7.40;99.90
19085;DHT22;9675;51.538;6.728;2023-11-22T12:05:35;7.40;99.90
19085;DHT22;9675;51.538;6.728;2023-11-22T12:08:02;7.50;99.90
19085;DHT22;9675;51.538;6.728;2023-11-22T12:10:31;7.50;99.90
19085;DHT22;9675;51.538;6.728;2023-11-22T12:12:58;7.50;99.90
19085;DHT22;9675;51.538;6.728;2023-11-22T12:15:25;7.50;99.90
19085;DHT22;9675;51.538;6.728;2023-11-22T12:17:54;7.50;99.90
19085;DHT22;9675;51.538;6.728;2023-11-22T12:20:23;7.60;99.90
19085;DHT22;9675;51.538;6.728;2023-11-22T12:22:52;7.60;99.90
19085;DHT22;9675;51.538;6.728;2023-11-22T12:25:19;7.60;99.90
19085;DHT22;9675;51.538;6.728;2023-11-22T12:27:49;7.70;99.90
19085;DHT22;9675;51.538;6.728;2023-11-22T12:30:28;7.70;99.90
19085;DHT22;9675;51.538;6.728;2023-11-22T12:32:59;7.80;99.90
19085;DHT22;9675;51.538;6.728;2023-11-22T12:35:27;7.80;99.90
19085;DHT22;9675;51.538;6.728;2023-11-22T12:37:55;7.80;99.90
19085;DHT22;9675;51.538;6.728;2023-11-22T12:40:22;7.90;99.90
19085;DHT22;9675;51.538;6.728;2023-11-22T12:42:51;8.00;99.90
19085;DHT22;9675;51.538;6.728;2023-11-22T12:45:22;8.00;99.90
19085;DHT22;9675;51.538;6.728;2023-11-22T12:47:51;8.10;99.90
19085;DHT22;9675;51.538;6.728;2023-11-22T12:50:29;8.10;99.90
19085;DHT22;9675;51.538;6.728;2023-11-22T12:53:08;8.20;99.90
19085;DHT22;9675;51.538;6.728;2023-11-22T12:55:37;8.20;99.90
19085;DHT22;9675;51.538;6.728;2023-11-22T12:58:10;8.30;99.90
19085;DHT22;9675;51.538;6.728;2023-11-22T13:00:38;8.40;99.90
19085;DHT22;9675;51.538;6.728;2023-11-22T13:03:06;8.40;99.90
19085;DHT22;9675;51.538;6.728;2023-11-22T13:05:36;8.40;99.90
19085;DHT22;9675;51.538;6.728;2023-11-22T13:08:03;8.50;99.90
19085;DHT22;9675;51.538;6.728;2023-11-22T13:10:31;8.50;99.90
19085;DHT22;9675;51.538;6.728;2023-11-22T13:12:58;8.60;99.90
19085;DHT22;9675;51.538;6.728;2023-11-22T13:15:28;8.60;99.90
19085;DHT22;9675;51.538;6.728;2023-11-22T13:17:55;8.60;99.90
19085;DHT22;9675;51.538;6.728;2023-11-22T13:20:24;8.70;99.90
19085;DHT22;9675;51.538;6.728;2023-11-22T13:22:52;8.80;99.90
19085;DHT22;9675;51.538;6.728;2023-11-22T13:25:19;8.80;99.90
19085;DHT22;9675;51.538;6.728;2023-11-22T13:27:47;8.80;99.90
19085;DHT22;9675;51.538;6.728;2023-11-22T13:30:13;8.90;99.90
19085;DHT22;9675;51.538;6.728;2023-11-22T13:32:42;8.90;99.90
19085;DHT22;9675;51.538;6.728;2023-11-22T13:35:09;9.00;99.90
19085;DHT22;9675;51.538;6.728;2023-11-22T13:37:41;9.00;99.90
19085;DHT22;9675;51.538;6.728;2023-11-22T13:40:10;9.00;99.90
19085;DHT22;9675;51.538;6.728;2023-11-22T13:42:41;9.00;99.90
19085;DHT22;9675;51.538;6.728;2023-11-22T13:45:10;9.10;99.90
19085;DHT22;9675;51.538;6.728;2023-11-22T13:47:42;9.10;99.90
19085;DHT22;9675;51.538;6.728;2023-11-22T13:50:13;9.10;99.90
19085;DHT22;9675;51.538;6.728;2023-11-22T13:52:44;9.10;99.90
19085;DHT22;9675;51.538;6.728;2023-11-22T13:55:12;9.10;99.90
19085;DHT22;9675;51.538;6.728;2023-11-22T13:57:39;9.10;99.90
19085;DHT22;9675;51.538;6.728;2023-11-22T14:00:07;9.10;99.90
19085;DHT22;9675;51.538;6.728;2023-11-22T14:02:37;9.10;99.90
19085;DHT22;9675;51.538;6.728;2023-11-22T14:05:06;9.10;99.90
19085;DHT22;9675;51.538;6.728;2023-11-22T14:07:35;9.10;99.90
19085;DHT22;9675;51.538;6.728;2023-11-22T14:10:03;9.10;99.90
19085;DHT22;9675;51.538;6.728;2023-11-22T14:12:32;9.10;99.90
19085;DHT22;9675;51.538;6.728;2023-11-22T14:14:59;9.10;99.90
19085;DHT22;9675;51.538;6.728;2023-11-22T14:17:28;9.10;99.90
19085;DHT22;9675;51.538;6.728;2023-11-22T14:19:55;9.00;99.90
19085;DHT22;9675;51.538;6.728;2023-11-22T14:22:24;9.00;99.90
19085;DHT22;9675;51.538;6.728;2023-11-22T14:24:51;9.00;99.90
19085;DHT22;9675;51.538;6.728;2023-11-22T14:27:18;9.00;99.90
19085;DHT22;9675;51.538;6.728;2023-11-22T14:29:45;9.00;99.90
19085;DHT22;9675;51.538;6.728;2023-11-22T14:32:14;8.90;99.90
19085;DHT22;9675;51.538;6.728;2023-11-22T14:34:41;9.00;99.90
19085;DHT22;9675;51.538;6.728;2023-11-22T14:37:10;8.90;99.90
19085;DHT22;9675;51.538;6.728;2023-11-22T14:39:38;8.90;99.90
19085;DHT22;9675;51.538;6.728;2023-11-22T14:42:05;8.90;99.90
19085;DHT22;9675;51.538;6.728;2023-11-22T14:44:33;8.90;99.90
19085;DHT22;9675;51.538;6.728;2023-11-22T14:47:01;8.90;99.90
19085;DHT22;9675;51.538;6.728;2023-11-22T14:49:37;8.90;99.90
19085;DHT22;9675;51.538;6.728;2023-11-22T14:52:04;8.80;99.90
19085;DHT22;9675;51.538;6.728;2023-11-22T14:54:31;8.80;99.90
19085;DHT22;9675;51.538;6.728;2023-11-22T14:57:00;8.80;99.90
19085;DHT22;9675;51.538;6.728;2023-11-22T14:59:28;8.70;99.90
19085;DHT22;9675;51.538;6.728;2023-11-22T15:01:55;8.70;99.90
19085;DHT22;9675;51.538;6.728;2023-11-22T15:04:23;8.60;99.90
19085;DHT22;9675;51.538;6.728;2023-11-22T15:06:51;8.60;99.90
19085;DHT22;9675;51.538;6.728;2023-11-22T15:09:18;8.60;99.90
19085;DHT22;9675;51.538;6.728;2023-11-22T15:11:46;8.60;99.90
19085;DHT22;9675;51.538;6.728;2023-11-22T15:14:15;8.60;99.90
19085;DHT22;9675;51.538;6.728;2023-11-22T15:16:42;8.60;99.90
19085;DHT22;9675;51.538;6.728;2023-11-22T15:19:09;8.50;99.90
19085;DHT22;9675;51.538;6.728;2023-11-22T15:21:36;8.50;99.90
19085;DHT22;9675;51.538;6.728;2023-11-22T15:24:04;8.50;99.90
19085;DHT22;9675;51.538;6.728;2023-11-22T15:26:31;8.50;99.90
19085;DHT22;9675;51.538;6.728;2023-11-22T15:29:00;8.50;99.90
19085;DHT22;9675;51.538;6.728;2023-11-22T15:31:28;8.40;99.90
19085;DHT22;9675;51.538;6.728;2023-11-22T15:33:56;8.40;99.90
19085;DHT22;9675;51.538;6.728;2023-11-22T15:36:23;8.40;99.90
19085;DHT22;9675;51.538;6.728;2023-11-22T15:38:51;8.40;99.90
19085;DHT22;9675;51.538;6.728;2023-11-22T15:41:19;8.30;99.90
19085;DHT22;9675;51.538;6.728;2023-11-22T15:43:46;8.30;99.90
19085;DHT22;9675;51.538;6.728;2023-11-22T15:46:13;8.30;99.90
19085;DHT22;9675;51.538;6.728;2023-11-22T15:48:44;8.30;99.90
19085;DHT22;9675;51.538;6.728;2023-11-22T15:51:11;8.40;99.90
19085;DHT22;9675;51.538;6.728;2023-11-22T15:53:38;8.40;99.90
19085;DHT22;9675;51.538;6.728;2023-11-22T15:56:06;8.30;99.90
19085;DHT22;9675;51.538;6.728;2023-11-22T15:58:40;8.30;99.90
19085;DHT22;9675;51.538;6.728;2023-11-22T16:01:07;8.30;99.90
19085;DHT22;9675;51.538;6.728;2023-11-22T16:03:35;8.30;99.90
19085;DHT22;9675;51.538;6.728;2023-11-22T16:06:06;8.20;99.90
19085;DHT22;9675;51.538;6.728;2023-11-22T16:08:34;8.20;99.90